Time;durP1;ratioP1;P1;durP2;ratioP2;P2;SDS_P1;SDS_P2;PMS_P1;PMS_P2;Temp;Humidity;BMP_temperature;BMP_pressure;BME280_temperature;BME280_humidity;BME280_pressure;Samples;Min_cycle;Max_cycle;Signal;HPM_P1;HPM_P2
2023/05/03 00:00:26;;;;;;;2.95;1.45;;;;;;;3.56;95.75;102138.50;4901399;29;20059;-81
2023/05/03 00:02:56;;;;;;;9.05;4.63;;;;;;;3.54;96.35;102137.53;4905350;29;20493;-81
2023/05/03 00:05:22;;;;;;;4.30;1.45;;;;;;;3.52;96.18;102138.28;4885344;29;20056;-82
2023/05/03 00:07:49;;;;;;;2.30;2.03;;;;;;;3.53;97.07;102134.88;4898470;29;20048;-81
2023/05/03 00:10:15;;;;;;;9.05;2.47;;;;;;;3.48;96.61;102142.44;4900732;29;20715;-85
2023/05/03 00:12:43;;;;;;;4.97;2.42;;;;;;;3.49;97.36;102146.81;4901934;29;20040;-82
2023/05/03 00:15:10;;;;;;;7.10;2.70;;;;;;;3.45;96.97;102140.59;4929579;29;20044;-85
2023/05/03 00:17:37;;;;;;;7.55;3.22;;;;;;;3.41;97.66;102148.19;4895065;29;20040;-80
2023/05/03 00:20:06;;;;;;;4.40;1.92;;;;;;;3.38;97.62;102146.34;4927594;28;20044;-89
2023/05/03 00:22:34;;;;;;;2.33;1.85;;;;;;;3.35;97.50;102142.72;4900326;29;20040;-82
2023/05/03 00:25:03;;;;;;;5.13;2.03;;;;;;;3.32;98.36;102135.69;4903669;29;20077;-84
2023/05/03 00:27:30;;;;;;;4.13;2.22;;;;;;;3.31;98.76;102142.59;4926297;29;20064;-81
2023/05/03 00:29:56;;;;;;;2.25;1.80;;;;;;;3.30;98.60;102142.53;4902749;29;20044;-87
2023/05/03 00:32:23;;;;;;;3.53;2.45;;;;;;;3.27;98.63;102145.88;4919285;29;20106;-83
2023/05/03 00:34:56;;;;;;;3.85;2.30;;;;;;;3.27;99.35;102140.69;4905372;29;20375;-82
2023/05/03 00:37:24;;;;;;;3.97;2.50;;;;;;;3.25;99.02;102142.31;4935943;29;20048;-84
2023/05/03 00:39:50;;;;;;;2.47;1.88;;;;;;;3.21;99.08;102142.13;4903422;29;20059;-80
2023/05/03 00:42:17;;;;;;;6.30;2.42;;;;;;;3.19;99.35;102144.59;4910046;29;20047;-86
2023/05/03 00:44:43;;;;;;;3.72;2.00;;;;;;;3.16;99.94;102149.66;4889338;29;20118;-80
2023/05/03 00:47:10;;;;;;;5.03;1.90;;;;;;;3.11;99.75;102145.97;4908823;29;20487;-80
2023/05/03 00:49:36;;;;;;;2.85;2.53;;;;;;;3.09;99.92;102142.41;4898732;29;20134;-81
2023/05/03 00:52:03;;;;;;;2.72;1.60;;;;;;;3.08;100.00;102144.13;4899315;29;20075;-81
2023/05/03 00:54:31;;;;;;;6.18;1.70;;;;;;;3.06;100.00;102139.69;4914869;29;20080;-81
2023/05/03 00:56:58;;;;;;;2.78;2.55;;;;;;;3.05;100.00;102144.00;4898257;29;20058;-81
2023/05/03 00:59:25;;;;;;;3.53;2.30;;;;;;;3.04;100.00;102139.63;4918897;29;20067;-81
2023/05/03 01:01:53;;;;;;;3.45;2.35;;;;;;;3.00;100.00;102134.25;4902495;29;20131;-89
2023/05/03 01:04:21;;;;;;;2.60;2.40;;;;;;;2.98;100.00;102135.03;4901223;29;20450;-90
2023/05/03 01:07:03;;;;;;;3.67;2.33;;;;;;;2.98;100.00;102134.16;4901916;29;20075;-80
2023/05/03 01:09:55;;;;;;;1.77;1.60;;;;;;;3.01;100.00;102139.47;4906774;29;20040;-81
2023/05/03 01:13:08;;;;;;;4.45;2.20;;;;;;;2.99;100.00;102133.38;4882816;29;20475;-85
2023/05/03 01:16:26;;;;;;;4.15;2.15;;;;;;;2.93;100.00;102143.41;4883967;29;20040;-84
2023/05/03 01:18:56;;;;;;;2.30;1.90;;;;;;;2.92;100.00;102147.72;4885398;29;20070;-81
2023/05/03 01:21:24;;;;;;;5.97;3.10;;;;;;;2.89;100.00;102151.84;4898957;29;20111;-85
2023/05/03 01:24:11;;;;;;;5.30;2.10;;;;;;;2.88;100.00;102145.81;4899795;29;20459;-81
2023/05/03 01:26:37;;;;;;;5.90;2.55;;;;;;;2.80;100.00;102150.63;4916200;29;20483;-86
2023/05/03 01:29:05;;;;;;;4.43;2.55;;;;;;;2.78;100.00;102143.59;4893199;29;20049;-80
2023/05/03 01:31:39;;;;;;;4.13;2.97;;;;;;;2.75;100.00;102152.09;4904774;29;20478;-86
2023/05/03 01:34:31;;;;;;;3.40;3.10;;;;;;;2.74;100.00;102152.03;4910031;29;20479;-87
2023/05/03 01:37:02;;;;;;;6.43;3.30;;;;;;;2.73;100.00;102145.97;4932844;29;20506;-82
2023/05/03 01:39:55;;;;;;;5.13;3.17;;;;;;;2.69;100.00;102146.63;4919750;29;20423;-81
2023/05/03 01:42:26;;;;;;;5.90;2.60;;;;;;;2.67;100.00;102147.38;4899873;29;20055;-85
2023/05/03 01:44:54;;;;;;;3.28;2.42;;;;;;;2.62;100.00;102148.03;4903361;29;20307;-82
2023/05/03 01:47:21;;;;;;;3.13;1.80;;;;;;;2.60;100.00;102143.63;4891049;29;20059;-90
2023/05/03 01:49:48;;;;;;;3.80;2.30;;;;;;;2.58;100.00;102140.06;4930539;29;20135;-80
2023/05/03 01:52:15;;;;;;;2.75;2.45;;;;;;;2.55;100.00;102155.44;4902127;29;20115;-80
2023/05/03 01:54:41;;;;;;;4.95;2.60;;;;;;;2.55;100.00;102151.13;4900591;29;20074;-81
2023/05/03 01:57:08;;;;;;;4.55;2.45;;;;;;;2.55;100.00;102153.72;4909444;29;20111;-80
2023/05/03 01:59:35;;;;;;;6.88;2.42;;;;;;;2.55;100.00;102150.25;4884807;29;20067;-83
2023/05/03 02:02:01;;;;;;;6.68;2.65;;;;;;;2.49;100.00;102150.88;4927560;29;20053;-79
2023/05/03 02:04:29;;;;;;;3.70;2.17;;;;;;;2.47;100.00;102152.47;4895625;29;20051;-85
2023/05/03 02:06:55;;;;;;;10.57;2.40;;;;;;;2.43;100.00;102163.47;4897871;29;20071;-81
2023/05/03 02:09:22;;;;;;;4.53;2.95;;;;;;;2.41;100.00;102160.81;4918343;29;20045;-82
2023/05/03 02:11:49;;;;;;;4.00;2.55;;;;;;;2.38;100.00;102162.38;4887007;29;20131;-81
2023/05/03 02:14:15;;;;;;;6.00;2.72;;;;;;;2.36;100.00;102158.81;4898364;29;20048;-81
2023/05/03 02:16:42;;;;;;;3.13;2.53;;;;;;;2.35;100.00;102167.38;4898815;29;20040;-82
2023/05/03 02:19:09;;;;;;;10.40;3.65;;;;;;;2.37;100.00;102168.34;4895255;29;20048;-81
2023/05/03 02:21:37;;;;;;;3.95;2.60;;;;;;;2.35;100.00;102167.38;4916192;29;20048;-81
2023/05/03 02:24:04;;;;;;;3.67;3.13;;;;;;;2.29;100.00;102171.44;4900590;29;20068;-79
2023/05/03 02:26:30;;;;;;;5.18;2.80;;;;;;;2.25;100.00;102169.50;4901239;29;20071;-80
2023/05/03 02:28:56;;;;;;;3.95;2.67;;;;;;;2.24;100.00;102182.34;4903247;29;20055;-81
2023/05/03 02:31:25;;;;;;;6.50;3.13;;;;;;;2.24;100.00;102180.66;4907172;29;20040;-83
2023/05/03 02:33:53;;;;;;;6.68;3.88;;;;;;;2.21;100.00;102175.34;4897666;29;20059;-82
2023/05/03 02:36:20;;;;;;;4.53;2.80;;;;;;;2.22;100.00;102176.25;4903031;29;20119;-82
2023/05/03 02:38:47;;;;;;;6.90;3.60;;;;;;;2.23;100.00;102185.75;4908199;29;20040;-82
2023/05/03 02:41:16;;;;;;;6.50;2.78;;;;;;;2.22;100.00;102184.00;4912691;29;20052;-83
2023/05/03 02:43:43;;;;;;;4.00;2.85;;;;;;;2.24;100.00;102187.50;4903151;29;20143;-82
2023/05/03 02:46:09;;;;;;;5.90;3.08;;;;;;;2.23;100.00;102184.06;4902009;29;20044;-83
2023/05/03 02:48:36;;;;;;;4.43;3.08;;;;;;;2.22;100.00;102192.63;4906988;29;20047;-85
2023/05/03 02:51:03;;;;;;;4.43;2.50;;;;;;;2.22;100.00;102184.88;4902554;29;20048;-83
2023/05/03 02:53:29;;;;;;;6.13;3.72;;;;;;;2.23;100.00;102184.06;4919320;29;20044;-83
2023/05/03 02:55:56;;;;;;;8.98;4.15;;;;;;;2.21;100.00;102188.25;4906441;29;20040;-86
2023/05/03 02:58:22;;;;;;;5.95;3.38;;;;;;;2.23;100.00;102188.31;4906131;29;20060;-87
2023/05/03 03:00:49;;;;;;;6.93;3.47;;;;;;;2.25;100.00;102187.59;4903439;29;20099;-81
2023/05/03 03:03:15;;;;;;;5.78;3.90;;;;;;;2.20;100.00;102190.75;4904388;29;20104;-82
2023/05/03 03:05:43;;;;;;;5.25;3.95;;;;;;;2.17;100.00;102188.03;4900974;29;20047;-83
2023/05/03 03:08:09;;;;;;;6.63;3.00;;;;;;;2.17;100.00;102186.31;4900659;29;20071;-81
2023/05/03 03:10:36;;;;;;;8.27;3.35;;;;;;;2.15;100.00;102190.50;4900656;29;20546;-87
2023/05/03 03:13:02;;;;;;;8.65;3.78;;;;;;;2.12;100.00;102192.97;4917812;29;20047;-85
2023/05/03 03:15:29;;;;;;;6.07;4.20;;;;;;;2.12;100.00;102190.38;4905294;29;20051;-86
2023/05/03 03:17:57;;;;;;;7.65;3.65;;;;;;;2.07;100.00;102191.84;4923168;29;20139;-82
2023/05/03 03:20:23;;;;;;;6.90;3.90;;;;;;;2.05;100.00;102178.84;4900785;29;20155;-82
2023/05/03 03:22:50;;;;;;;9.30;3.75;;;;;;;2.02;100.00;102186.47;4923108;29;20406;-81
2023/05/03 03:25:16;;;;;;;8.35;4.68;;;;;;;2.03;100.00;102189.91;4907633;29;20387;-82
2023/05/03 03:27:43;;;;;;;9.20;4.53;;;;;;;2.03;100.00;102182.16;4912439;29;20111;-82
2023/05/03 03:30:10;;;;;;;4.72;3.45;;;;;;;1.99;100.00;102194.03;4907588;29;20050;-82
2023/05/03 03:32:37;;;;;;;9.02;3.80;;;;;;;1.99;100.00;102188.88;4899565;29;20079;-81
2023/05/03 03:35:03;;;;;;;5.45;3.70;;;;;;;1.98;100.00;102185.41;4905193;29;20047;-82
2023/05/03 03:37:30;;;;;;;8.18;4.20;;;;;;;1.98;100.00;102187.09;4885022;29;20047;-83
2023/05/03 03:39:56;;;;;;;5.45;3.50;;;;;;;1.97;100.00;102183.63;4911875;29;20502;-82
2023/05/03 03:42:24;;;;;;;9.57;4.10;;;;;;;1.98;100.00;102185.41;4921684;29;20495;-83
2023/05/03 03:44:51;;;;;;;8.07;4.40;;;;;;;1.96;100.00;102189.59;4930501;29;20040;-80
2023/05/03 03:47:17;;;;;;;10.63;3.88;;;;;;;1.98;100.00;102184.50;4905237;29;20122;-80
2023/05/03 03:49:44;;;;;;;5.63;3.70;;;;;;;1.94;100.00;102186.06;4925999;29;20128;-82
2023/05/03 03:52:10;;;;;;;8.50;4.68;;;;;;;1.93;100.00;102179.13;4889061;29;20052;-84
2023/05/03 03:54:37;;;;;;;6.57;4.13;;;;;;;1.92;100.00;102182.50;4882886;29;20051;-82
2023/05/03 03:57:03;;;;;;;6.15;3.88;;;;;;;1.90;100.00;102178.94;4899970;29;20048;-82
2023/05/03 03:59:30;;;;;;;12.80;5.28;;;;;;;1.88;100.00;102188.31;4909301;29;20044;-86
2023/05/03 04:01:57;;;;;;;5.85;4.25;;;;;;;1.87;100.00;102186.53;4922957;29;20076;-84
2023/05/03 04:04:23;;;;;;;8.90;4.85;;;;;;;1.88;100.00;102187.41;4908269;29;20059;-84
2023/05/03 04:06:50;;;;;;;6.38;3.60;;;;;;;1.90;100.00;102188.41;4892429;29;20047;-82
2023/05/03 04:09:16;;;;;;;8.32;4.25;;;;;;;1.91;100.00;102185.88;4904473;29;20446;-82
2023/05/03 04:11:43;;;;;;;7.63;4.72;;;;;;;1.91;100.00;102188.47;4911663;29;20108;-84
2023/05/03 04:14:09;;;;;;;11.65;4.55;;;;;;;1.92;100.00;102182.50;4901788;29;20044;-82
2023/05/03 04:16:36;;;;;;;8.82;5.18;;;;;;;1.89;100.00;102174.63;4897672;29;20032;-89
2023/05/03 04:19:02;;;;;;;8.52;4.03;;;;;;;1.89;100.00;102182.34;4911699;29;20550;-81
2023/05/03 04:21:29;;;;;;;12.25;4.32;;;;;;;1.95;100.00;102179.19;4902881;29;20056;-80
2023/05/03 04:23:55;;;;;;;11.20;5.03;;;;;;;1.98;100.00;102179.34;4931320;29;20040;-80
2023/05/03 04:26:23;;;;;;;7.45;3.97;;;;;;;2.02;100.00;102182.97;4916178;29;20123;-81
2023/05/03 04:28:50;;;;;;;6.97;4.18;;;;;;;2.04;100.00;102177.06;4898224;29;20055;-82
2023/05/03 04:31:18;;;;;;;6.18;3.53;;;;;;;2.11;100.00;102183.44;4902004;29;20408;-81
2023/05/03 04:33:45;;;;;;;12.30;4.35;;;;;;;2.15;100.00;102182.78;4899288;29;20047;-82
2023/05/03 04:36:14;;;;;;;9.18;4.40;;;;;;;2.20;100.00;102183.00;4898915;29;20120;-87
2023/05/03 04:38:44;;;;;;;7.85;4.75;;;;;;;2.26;100.00;102189.38;4896966;29;20048;-82
2023/05/03 04:41:11;;;;;;;10.85;5.00;;;;;;;2.33;100.00;102187.09;4898604;29;20108;-83
2023/05/03 04:43:38;;;;;;;13.25;4.60;;;;;;;2.39;100.00;102192.56;4900467;29;20040;-83
2023/05/03 04:46:04;;;;;;;9.93;4.20;;;;;;;2.45;100.00;102196.34;4918845;29;20055;-82
2023/05/03 04:48:31;;;;;;;11.18;4.53;;;;;;;2.51;100.00;102194.88;4900233;29;20048;-81
2023/05/03 04:50:58;;;;;;;5.22;4.10;;;;;;;2.57;100.00;102197.75;4911545;29;20051;-81
2023/05/03 04:53:26;;;;;;;12.93;5.80;;;;;;;2.63;100.00;102200.63;4919153;29;20213;-83
2023/05/03 04:55:52;;;;;;;14.35;5.13;;;;;;;2.67;100.00;102204.25;4928063;29;20058;-86
2023/05/03 04:58:19;;;;;;;6.40;3.58;;;;;;;2.70;100.00;102201.81;4900492;29;20055;-82
2023/05/03 05:00:46;;;;;;;9.77;3.90;;;;;;;2.74;100.00;102198.59;4898509;29;20517;-82
2023/05/03 05:03:12;;;;;;;8.68;4.43;;;;;;;2.78;100.00;102205.66;4882326;29;20052;-85
2023/05/03 05:05:39;;;;;;;8.25;4.20;;;;;;;2.85;100.00;102210.31;4882504;29;20052;-82
2023/05/03 05:08:06;;;;;;;13.90;4.75;;;;;;;2.89;100.00;102208.75;4906509;29;20052;-86
2023/05/03 05:10:37;;;;;;;6.88;3.40;;;;;;;2.93;100.00;102210.69;4889662;29;20047;-83
2023/05/03 05:13:06;;;;;;;9.00;4.47;;;;;;;2.99;100.00;102210.97;4898315;29;20888;-82
2023/05/03 05:15:34;;;;;;;6.75;4.25;;;;;;;3.03;100.00;102212.00;4899097;29;20044;-82
2023/05/03 05:18:01;;;;;;;6.70;4.20;;;;;;;3.08;100.00;102206.22;4918186;29;20412;-82
2023/05/03 05:20:27;;;;;;;10.27;6.13;;;;;;;3.13;100.00;102215.09;4899253;29;20078;-82
2023/05/03 05:22:54;;;;;;;8.25;4.13;;;;;;;3.18;100.00;102214.41;4909351;29;20043;-86
2023/05/03 05:25:20;;;;;;;10.18;4.72;;;;;;;3.25;100.00;102214.78;4902868;29;20044;-80
2023/05/03 05:27:47;;;;;;;6.53;4.45;;;;;;;3.30;100.00;102220.19;4901619;29;20044;-81
2023/05/03 05:30:14;;;;;;;3.97;3.67;;;;;;;3.38;100.00;102220.53;4886769;29;20052;-80
2023/05/03 05:32:40;;;;;;;5.68;4.03;;;;;;;3.42;100.00;102212.09;4909141;29;20079;-81
2023/05/03 05:35:08;;;;;;;12.25;4.15;;;;;;;3.47;100.00;102220.94;4902189;29;20048;-81
2023/05/03 05:37:35;;;;;;;6.88;3.58;;;;;;;3.52;100.00;102215.97;4907130;29;20417;-82
2023/05/03 05:40:01;;;;;;;10.80;4.55;;;;;;;3.58;100.00;102224.88;4912719;29;20378;-81
2023/05/03 05:42:30;;;;;;;5.00;3.60;;;;;;;3.63;100.00;102228.56;4908229;29;20096;-80
2023/05/03 05:44:56;;;;;;;8.48;3.88;;;;;;;3.66;100.00;102230.41;4902498;29;20051;-80
2023/05/03 05:47:23;;;;;;;7.25;3.55;;;;;;;3.72;100.00;102232.41;4921309;29;20128;-81
2023/05/03 05:49:49;;;;;;;12.38;5.50;;;;;;;3.79;100.00;102239.63;4900187;29;20052;-85
2023/05/03 05:52:16;;;;;;;8.60;3.72;;;;;;;3.82;100.00;102232.00;4907336;29;20044;-87
2023/05/03 05:54:43;;;;;;;13.43;3.97;;;;;;;3.88;100.00;102236.56;4912712;29;20048;-83
2023/05/03 05:57:12;;;;;;;8.95;5.05;;;;;;;3.96;100.00;102242.94;4901257;29;20041;-80
2023/05/03 05:59:39;;;;;;;8.93;4.47;;;;;;;4.08;100.00;102243.50;4886416;29;20162;-83
2023/05/03 06:02:15;;;;;;;4.32;3.15;;;;;;;4.22;100.00;102236.28;4912020;29;20164;-86
2023/05/03 06:04:42;;;;;;;11.23;4.45;;;;;;;4.31;100.00;102233.22;4898080;29;20526;-83
2023/05/03 06:07:08;;;;;;;8.25;3.17;;;;;;;4.38;100.00;102244.72;4903994;29;20052;-84
2023/05/03 06:09:35;;;;;;;3.75;3.33;;;;;;;4.42;98.89;102233.66;4903824;29;20044;-81
2023/05/03 06:12:01;;;;;;;5.50;3.85;;;;;;;4.46;98.73;102243.38;4904099;29;20122;-82
2023/05/03 06:14:28;;;;;;;6.00;3.22;;;;;;;4.49;98.42;102251.25;4911668;29;20444;-84
2023/05/03 06:16:54;;;;;;;5.10;3.97;;;;;;;4.57;98.19;102255.03;4903249;29;20040;-83
2023/05/03 06:19:23;;;;;;;7.07;3.40;;;;;;;4.71;97.54;102247.84;4956414;23;20064;-82
2023/05/03 06:21:49;;;;;;;7.50;3.67;;;;;;;4.83;96.72;102255.25;4929809;29;20142;-82
2023/05/03 06:24:19;;;;;;;8.65;3.78;;;;;;;4.93;96.05;102254.78;4937176;29;20048;-80
2023/05/03 06:26:47;;;;;;;4.30;3.58;;;;;;;5.02;95.39;102258.56;4940221;29;20063;-81
2023/05/03 06:29:13;;;;;;;8.80;3.25;;;;;;;5.08;94.11;102257.09;4932847;29;20039;-81
2023/05/03 06:31:41;;;;;;;7.38;3.67;;;;;;;5.20;92.34;102271.38;4940358;29;20130;-82
2023/05/03 06:34:08;;;;;;;5.85;3.45;;;;;;;5.29;92.35;102270.06;4930833;29;20048;-82
2023/05/03 06:36:34;;;;;;;6.70;3.90;;;;;;;5.42;91.51;102265.31;4954798;28;20043;-82
2023/05/03 06:39:03;;;;;;;7.40;3.33;;;;;;;5.46;90.79;102264.59;4937524;29;20047;-81
2023/05/03 06:41:31;;;;;;;8.98;3.58;;;;;;;5.50;90.70;102265.59;4940467;29;20117;-84
2023/05/03 06:43:58;;;;;;;7.40;3.80;;;;;;;5.63;90.07;102268.75;4937376;29;20052;-81
2023/05/03 06:46:24;;;;;;;9.00;3.58;;;;;;;5.74;88.65;102266.53;4936776;29;20518;-82
2023/05/03 06:48:54;;;;;;;8.65;4.50;;;;;;;5.86;89.15;102268.69;4918462;29;20380;-82
2023/05/03 06:51:26;;;;;;;9.43;3.63;;;;;;;5.93;86.99;102260.31;4934069;29;20059;-82
2023/05/03 06:53:59;;;;;;;4.53;3.47;;;;;;;6.13;86.87;102268.84;4948865;28;20429;-89
2023/05/03 06:56:26;;;;;;;3.40;2.70;;;;;;;6.52;84.84;102261.47;4943995;29;20044;-82
2023/05/03 06:58:53;;;;;;;4.20;3.13;;;;;;;7.08;79.22;102271.97;4935306;29;20040;-83
2023/05/03 07:01:22;;;;;;;3.53;2.67;;;;;;;7.49;77.12;102264.53;4934061;29;20043;-84
2023/05/03 07:03:51;;;;;;;4.70;2.40;;;;;;;7.86;75.29;102260.41;4942693;29;20395;-82
2023/05/03 07:06:18;;;;;;;6.05;2.13;;;;;;;8.13;69.66;102253.28;4933540;29;20051;-84
2023/05/03 07:08:45;;;;;;;4.22;1.92;;;;;;;8.44;69.09;102260.19;4937771;28;20035;-84
2023/05/03 07:11:11;;;;;;;3.47;1.20;;;;;;;9.06;65.97;102254.78;4920998;29;20133;-81
2023/05/03 07:13:38;;;;;;;5.93;1.15;;;;;;;9.64;61.85;102253.41;4934897;29;20385;-82
2023/05/03 07:16:05;;;;;;;1.75;0.95;;;;;;;10.26;62.55;102250.25;4920578;29;20476;-82
2023/05/03 07:18:31;;;;;;;6.10;1.25;;;;;;;10.58;60.35;102256.03;4931215;29;20052;-82
2023/05/03 07:20:58;;;;;;;3.25;1.60;;;;;;;10.30;60.06;102249.44;4934557;29;20047;-81
2023/05/03 07:23:25;;;;;;;3.95;1.23;;;;;;;9.96;58.87;102248.81;4928467;29;20688;-83
2023/05/03 07:25:52;;;;;;;1.88;0.75;;;;;;;9.58;58.96;102241.06;4925916;29;20225;-82
2023/05/03 07:28:19;;;;;;;2.50;1.48;;;;;;;9.38;60.77;102253.72;4923346;29;20044;-82
2023/05/03 07:30:46;;;;;;;5.88;1.00;;;;;;;10.04;60.66;102251.59;4931014;29;20079;-87
2023/05/03 07:33:12;;;;;;;2.35;0.90;;;;;;;11.31;57.19;102254.53;4923751;29;20036;-82
2023/05/03 07:35:38;;;;;;;3.13;0.95;;;;;;;12.50;52.17;102242.78;4921881;29;20039;-81
2023/05/03 07:38:05;;;;;;;3.75;1.00;;;;;;;13.44;48.41;102239.03;4933129;29;20042;-83
2023/05/03 07:40:32;;;;;;;4.72;0.80;;;;;;;13.48;49.30;102239.06;4922057;29;20043;-82
2023/05/03 07:43:02;;;;;;;1.73;0.73;;;;;;;13.07;48.12;102227.44;4927983;29;20059;-81
2023/05/03 07:45:28;;;;;;;3.88;1.20;;;;;;;12.71;47.82;102228.94;4917269;29;20055;-82
2023/05/03 07:47:56;;;;;;;0.70;0.63;;;;;;;12.46;48.19;102235.72;4936071;29;20146;-82
2023/05/03 07:50:23;;;;;;;2.08;0.95;;;;;;;12.29;47.49;102237.31;4924899;29;20048;-82
2023/05/03 07:52:50;;;;;;;2.33;0.50;;;;;;;11.83;46.80;102235.94;4921734;29;20043;-83
2023/05/03 07:55:19;;;;;;;6.05;0.90;;;;;;;12.93;45.48;102236.06;4905952;29;20040;-81
2023/05/03 07:57:46;;;;;;;1.75;0.80;;;;;;;14.24;43.10;102241.91;4944861;29;20051;-82
2023/05/03 08:00:13;;;;;;;4.15;1.67;;;;;;;15.05;41.60;102232.22;4933652;29;20553;-83
2023/05/03 08:02:40;;;;;;;2.88;0.70;;;;;;;15.41;40.09;102221.53;4909637;29;20048;-85
2023/05/03 08:05:08;;;;;;;2.60;0.82;;;;;;;15.48;37.63;102223.28;4924391;29;20042;-81
2023/05/03 08:07:35;;;;;;;3.08;0.73;;;;;;;15.11;38.85;102223.41;4918550;29;20102;-91
2023/05/03 08:10:01;;;;;;;1.30;0.75;;;;;;;15.75;39.00;102222.28;4915786;29;20055;-83
2023/05/03 08:12:28;;;;;;;2.58;0.70;;;;;;;16.08;38.12;102216.84;4902898;29;20143;-82
2023/05/03 08:14:55;;;;;;;5.22;1.02;;;;;;;16.46;35.83;102216.53;4923544;29;20038;-85
2023/05/03 08:17:23;;;;;;;9.52;1.20;;;;;;;16.17;35.59;102228.19;4929064;29;20091;-82
2023/05/03 08:19:51;;;;;;;2.78;0.50;;;;;;;16.34;36.42;102227.22;4954193;28;20055;-86
2023/05/03 08:22:17;;;;;;;3.22;0.77;;;;;;;16.89;36.10;102224.97;4932488;29;20190;-83
2023/05/03 08:24:44;;;;;;;3.17;0.70;;;;;;;17.41;34.77;102221.75;4927600;29;20119;-82
2023/05/03 08:27:11;;;;;;;2.80;0.70;;;;;;;18.25;34.53;102213.53;4932523;29;20684;-80
2023/05/03 08:29:37;;;;;;;4.38;1.00;;;;;;;19.27;33.42;102219.66;4920863;29;20035;-83
2023/05/03 08:32:05;;;;;;;3.35;0.65;;;;;;;19.64;31.56;102212.69;4926013;29;20041;-81
2023/05/03 08:34:32;;;;;;;1.75;0.55;;;;;;;19.94;30.53;102220.91;4893350;29;20063;-82
2023/05/03 08:36:59;;;;;;;1.75;0.73;;;;;;;18.72;30.97;102218.94;4931661;29;20047;-81
2023/05/03 08:39:30;;;;;;;2.72;0.80;;;;;;;18.75;31.59;102220.66;4926539;29;20043;-84
2023/05/03 08:41:57;;;;;;;3.75;0.80;;;;;;;19.05;31.51;102226.31;4924681;29;20106;-85
2023/05/03 08:44:29;;;;;;;2.38;0.60;;;;;;;19.45;30.99;102222.84;4921436;29;21452;-83
2023/05/03 08:46:56;;;;;;;3.75;0.63;;;;;;;19.26;30.28;102222.38;4914297;29;20102;-84
2023/05/03 08:49:23;;;;;;;3.20;0.75;;;;;;;19.70;30.73;102220.53;4915820;29;20047;-82
2023/05/03 08:51:51;;;;;;;4.65;1.33;;;;;;;19.69;29.54;102215.25;4920746;29;20039;-82
2023/05/03 08:54:20;;;;;;;3.13;0.93;;;;;;;19.95;29.52;102218.22;4936580;29;20051;-81
2023/05/03 08:56:47;;;;;;;4.28;0.77;;;;;;;19.38;29.97;102222.09;4942382;29;20111;-82
2023/05/03 08:59:16;;;;;;;1.75;0.63;;;;;;;18.55;31.35;102221.88;4912184;29;20059;-83
2023/05/03 09:01:43;;;;;;;10.88;1.48;;;;;;;18.87;30.81;102220.41;4918691;29;20054;-83
2023/05/03 09:04:11;;;;;;;2.28;0.80;;;;;;;19.34;29.65;102215.09;4925020;29;20076;-83
2023/05/03 09:06:38;;;;;;;2.72;0.73;;;;;;;19.39;29.57;102218.53;4926011;29;20039;-82
2023/05/03 09:09:07;;;;;;;1.50;0.85;;;;;;;19.12;29.51;102217.31;4919574;29;20043;-84
2023/05/03 09:11:35;;;;;;;3.28;0.82;;;;;;;19.39;30.07;102213.22;4937018;29;20075;-81
2023/05/03 09:14:14;;;;;;;4.00;0.77;;;;;;;20.24;28.69;102208.66;4918134;29;20048;-82
2023/05/03 09:16:43;;;;;;;0.70;0.70;;;;;;;20.77;27.94;102196.72;4924463;29;20040;-82
2023/05/03 09:19:14;;;;;;;3.00;1.00;;;;;;;21.30;27.40;102204.09;4910388;29;20498;-82
2023/05/03 09:21:55;;;;;;;1.45;0.80;;;;;;;20.78;27.04;102202.00;4900436;29;20139;-83
2023/05/03 09:24:22;;;;;;;1.75;0.57;;;;;;;20.39;27.05;102201.22;4907284;29;20092;-85
2023/05/03 09:27:02;;;;;;;1.45;0.70;;;;;;;20.19;27.21;102199.06;4927698;29;20046;-83
2023/05/03 09:29:33;;;;;;;2.58;1.20;;;;;;;19.46;28.80;102198.94;4918021;29;20102;-82
2023/05/03 09:32:07;;;;;;;3.42;1.55;;;;;;;20.75;27.73;102199.41;4914775;29;20048;-85
2023/05/03 09:34:35;;;;;;;2.13;1.05;;;;;;;21.21;26.39;102197.25;4903073;29;20048;-83
2023/05/03 09:37:02;;;;;;;2.88;0.65;;;;;;;21.79;26.51;102191.09;4927162;29;20111;-83
2023/05/03 09:39:29;;;;;;;1.05;0.60;;;;;;;22.98;25.84;102204.91;4930352;29;20040;-84
2023/05/03 09:41:55;;;;;;;3.45;0.93;;;;;;;23.53;24.62;102197.53;4927014;29;20051;-86
2023/05/03 09:44:50;;;;;;;2.55;0.60;;;;;;;24.64;22.55;102199.28;4925763;29;20056;-82
2023/05/03 09:47:18;;;;;;;4.55;0.80;;;;;;;24.62;23.03;102199.31;4917730;29;20071;-82
2023/05/03 09:49:45;;;;;;;2.38;0.77;;;;;;;25.08;23.34;102201.75;4917764;29;20048;-83
2023/05/03 09:52:12;;;;;;;1.27;1.02;;;;;;;24.28;22.74;102200.78;4913583;29;20044;-82
2023/05/03 09:54:39;;;;;;;2.83;1.23;;;;;;;23.65;23.85;102197.94;4908302;29;20098;-81
2023/05/03 09:57:08;;;;;;;1.40;0.65;;;;;;;22.45;24.62;102196.97;4921666;29;20044;-86
2023/05/03 09:59:37;;;;;;;2.72;0.95;;;;;;;23.53;24.26;102193.97;4923581;29;20191;-82
2023/05/03 10:02:06;;;;;;;1.88;0.75;;;;;;;23.51;23.65;102190.50;4898399;29;20056;-82
2023/05/03 10:04:43;;;;;;;3.55;0.85;;;;;;;22.77;24.43;102191.41;4915998;29;20040;-83
2023/05/03 10:07:15;;;;;;;2.85;1.05;;;;;;;23.36;23.92;102181.25;4926644;29;20082;-82
2023/05/03 10:09:48;;;;;;;1.80;0.53;;;;;;;24.37;22.50;102180.78;4903433;29;20075;-83
2023/05/03 10:12:16;;;;;;;1.67;0.98;;;;;;;25.37;22.58;102184.38;4921906;29;20087;-83
2023/05/03 10:14:46;;;;;;;1.63;0.70;;;;;;;25.94;21.87;102183.41;4923789;29;20572;-84
2023/05/03 10:17:22;;;;;;;4.35;1.48;;;;;;;26.07;21.37;102178.34;4925091;29;20048;-83
2023/05/03 10:20:21;;;;;;;1.15;0.68;;;;;;;24.07;22.45;102186.50;4925093;29;20537;-83
2023/05/03 10:23:08;;;;;;;2.55;1.00;;;;;;;22.51;24.53;102184.31;4919460;29;20086;-82
2023/05/03 10:25:49;;;;;;;1.75;0.85;;;;;;;23.05;24.31;102179.69;4919488;29;20063;-83
2023/05/03 10:28:16;;;;;;;3.10;1.50;;;;;;;23.22;24.25;102184.44;4917380;29;20052;-82
2023/05/03 10:30:43;;;;;;;2.28;1.00;;;;;;;23.35;23.78;102176.84;4925496;29;20102;-86
2023/05/03 10:33:12;;;;;;;3.15;1.20;;;;;;;23.61;23.67;102166.00;4915017;29;20483;-82
2023/05/03 10:35:45;;;;;;;2.83;0.70;;;;;;;24.48;23.39;102172.28;4921695;29;20482;-83
2023/05/03 10:38:26;;;;;;;3.08;0.82;;;;;;;25.19;21.64;102167.31;4907093;29;20115;-85
2023/05/03 10:40:55;;;;;;;3.22;0.90;;;;;;;25.62;21.94;102168.91;4915240;29;20469;-83
2023/05/03 10:43:30;;;;;;;4.90;0.85;;;;;;;24.65;21.90;102161.72;4897023;29;20100;-84
2023/05/03 10:45:58;;;;;;;4.28;0.90;;;;;;;24.66;22.82;102163.47;4921452;29;20372;-84
2023/05/03 10:48:25;;;;;;;2.42;1.02;;;;;;;25.58;21.87;102169.06;4914872;29;20048;-82
2023/05/03 10:50:52;;;;;;;4.25;1.00;;;;;;;25.48;21.20;102165.09;4917982;29;20052;-85
2023/05/03 10:53:37;;;;;;;1.15;0.73;;;;;;;25.27;21.19;102172.31;4926325;29;20056;-85
2023/05/03 10:56:10;;;;;;;4.18;1.05;;;;;;;26.10;20.38;102159.44;4932132;29;20053;-89
2023/05/03 10:58:44;;;;;;;4.53;1.10;;;;;;;25.80;20.14;102170.72;4934009;29;20040;-83
2023/05/03 11:01:14;;;;;;;1.50;0.70;;;;;;;26.39;20.30;102152.53;4902791;29;20487;-84
2023/05/03 11:04:37;;;;;;;3.70;1.35;;;;;;;27.94;19.12;102148.56;4914635;29;20048;-84
2023/05/03 11:07:03;;;;;;;1.90;1.02;;;;;;;27.87;19.32;102138.19;4850565;29;20045;-86
2023/05/03 11:09:33;;;;;;;7.93;1.02;;;;;;;28.37;19.20;102138.81;4900156;29;20064;-82
2023/05/03 11:12:04;;;;;;;1.58;1.00;;;;;;;27.78;18.64;102136.00;4905987;29;20108;-84
2023/05/03 11:14:34;;;;;;;6.57;1.35;;;;;;;26.11;19.88;102138.81;4904726;29;20152;-83
2023/05/03 11:17:01;;;;;;;3.15;0.93;;;;;;;26.10;20.26;102140.63;4924464;29;20518;-84
2023/05/03 11:19:30;;;;;;;2.83;0.70;;;;;;;25.30;20.40;102141.81;4922014;29;20501;-85
2023/05/03 11:22:01;;;;;;;2.33;0.75;;;;;;;26.14;20.14;102139.53;4920032;29;20059;-84
2023/05/03 11:24:27;;;;;;;1.60;1.02;;;;;;;27.22;19.06;102140.97;4933045;29;20078;-83
2023/05/03 11:26:54;;;;;;;2.72;1.20;;;;;;;27.67;18.87;102133.09;4917937;29;20044;-83
2023/05/03 11:29:20;;;;;;;2.25;1.10;;;;;;;28.10;18.63;102127.03;4912291;29;20052;-86
2023/05/03 11:31:47;;;;;;;3.63;1.10;;;;;;;28.79;18.32;102121.97;4918890;29;20044;-83
2023/05/03 11:34:19;;;;;;;2.70;0.75;;;;;;;28.63;17.29;102117.50;4905889;29;20084;-83